CST,Max TemperatureF,Mean TemperatureF,Min TemperatureF,Max Dew PointF,MeanDew PointF,Min DewpointF,Max Humidity, Mean Humidity, Min Humidity, Max Sea Level PressureIn, Mean Sea Level PressureIn, Min Sea Level PressureIn, Max VisibilityMiles, Mean VisibilityMiles, Min VisibilityMiles, Max Wind SpeedMPH, Mean Wind SpeedMPH, Max Gust SpeedMPH,PrecipitationIn, CloudCover, Events, WindDirDegrees
2012-11-1,82,62,42,50,45,39,100,61,25,30.07,29.99,29.92,10,10,5,10,3,,0.00,0,,112
2012-11-2,87,68,50,54,50,43,94,60,22,30.01,29.96,29.92,10,9,2,15,5,22,0.00,0,,188
2012-11-3,82,68,55,61,53,41,94,64,39,30.09,30.03,29.97,10,10,7,12,6,18,0.00,1,,259
2012-11-4,71,61,51,50,47,43,88,65,43,30.19,30.12,30.08,10,10,7,12,6,18,0.05,3,,106
2012-11-5,71,58,44,50,42,32,87,61,23,30.10,30.04,29.96,10,10,10,18,6,28,0.00,2,,4
2012-11-6,68,54,39,39,36,34,87,60,28,30.16,30.09,30.03,10,10,7,13,4,,0.00,0,,297
2012-11-7,73,55,37,39,32,27,93,50,18,30.18,30.13,30.09,10,10,10,15,4,20,0.00,0,,359
2012-11-8,71,56,41,41,37,30,76,52,28,30.23,30.12,30.04,10,10,10,15,8,17,0.00,0,,115
2012-11-9,78,64,50,57,50,41,88,64,41,30.11,30.05,29.97,10,10,10,20,9,29,0.00,2,,146
2012-11-10,78,68,59,59,55,54,94,66,42,30.10,30.00,29.93,10,10,10,21,11,28,0.00,4,,158
2012-11-11,68,56,44,64,54,36,94,82,68,30.23,29.97,29.82,10,10,5,24,12,31,0.36,7,,183
2012-11-12,60,46,32,36,25,14,87,56,17,30.50,30.42,30.23,10,10,7,13,7,17,0.00,1,,356
2012-11-13,60,44,28,36,26,19,93,58,22,30.54,30.45,30.37,10,10,10,10,3,16,0.00,0,,91
2012-11-14,62,47,32,32,27,23,87,54,23,30.46,30.38,30.31,10,10,10,7,3,,0.00,0,,90
2012-11-15,62,47,32,32,30,27,87,61,26,30.38,30.33,30.27,10,10,0,8,3,,0.00,0,,94
2012-11-16,68,49,30,37,30,25,100,58,20,30.43,30.38,30.34,10,10,5,10,3,,0.00,0,,80
2012-11-17,68,50,32,32,29,25,87,53,21,30.45,30.37,30.32,10,10,7,9,5,,0.00,0,,97
2012-11-18,69,53,37,36,33,30,81,55,25,30.37,30.30,30.24,10,10,10,9,7,,0.00,0,,111
2012-11-19,69,58,48,43,39,36,71,53,33,30.28,30.22,30.16,10,10,10,9,5,,0.00,4,,110
2012-11-20,78,64,50,50,45,41,87,56,32,30.22,30.17,30.12,10,10,10,8,3,,0.00,1,,325
2012-11-21,77,58,39,52,41,36,94,59,22,30.30,30.21,30.16,10,9,4,13,4,,0.00,0,,131
2012-11-22,75,58,42,54,43,37,87,58,29,30.16,30.12,30.04,10,10,5,20,6,28,0.05,0,,160
2012-11-23,64,50,35,54,33,19,94,52,20,30.42,30.32,30.13,10,10,4,21,9,30,0.02,2,,6
2012-11-24,59,44,28,27,21,18,74,48,20,30.41,30.30,30.15,10,10,10,9,3,,0.00,0,,175
2012-11-25,69,50,30,43,34,25,87,58,28,30.15,30.01,29.90,10,10,10,14,6,21,0.00,0,,138
2012-11-26,66,56,46,55,48,41,94,79,64,30.21,30.00,29.93,10,9,4,16,8,23,0.00,7,,56
2012-11-27,60,48,35,41,32,27,81,58,29,30.41,30.33,30.21,10,10,7,10,6,18,0.00,2,,49
2012-11-28,60,45,30,34,31,28,93,65,34,30.49,30.38,30.32,10,10,10,9,5,,0.00,0,,110
2012-11-29,66,50,33,36,32,30,93,58,26,30.32,30.24,30.15,10,10,10,10,6,16,0.00,0,,120
2012-11-30,64,53,42,55,46,32,82,70,61,30.21,30.14,30.09,10,10,10,10,6,18,0.00,6,,125